Portada
METAR-TAF:

METAR-TAF

Aeroports :

Aeroport de Londres-Gatwick

Londres-Gatwick, Anglaterra

latitud: 51-09N, longitud: 000-11W, altitud: 62 m

Observació

L'informe es va fer fa 32 minuts, a les 05:50 UTC
Vent 3 kt amb direcció variable
Temperatura 13°C
Humitat 82%
Pressió 1022 hPa
Visibilitat 10 km o més
sense núvols per sota de 1500 mi sense presència de cumulonimbus.

METAR: EGKK 010550Z VRB03KT CAVOK 13/10 Q1022

Hora: 07:22 (06:22 UTC)

Pronòstic

L'informe es va fer fa 1 hora i 27 minuts, a les 04:55 UTC
Pronòstic vàlid del 01 a les 06 UTC al 02 a les 12 UTC
Vent 4 kt del Nord
Visibilitat 10 km o més
sense núvols per sota de 1500 mi sense presència de cumulonimbus.
Evolucionant progressivament
l' 01 a les 08 UTC al 01 a les 11 UTC
Vent 10 kt del Est/Nord-Est
Evolucionant progressivament
l' 02 a les 00 UTC al 02 a les 03 UTC
Vent 4 kt del Nord

TAF: EGKK 010455Z 0106/0212 36004KT CAVOK BECMG 0108/0111 07010KT BECMG 0200/0203 01004KT

Observacions i pronòstics meteorològics de més de 4000 aeroports (METAR i TAF).

Les estacions disponibles són els punts grocs i vermells al mapa.

Posi el ratolí al punt desitjat per veure el nom de l'estació.

Feu clic per veure les observacions i els pronòstics meteorològics.

Per canviar el mapa: feu clic els botons verds amb una creu de color negre per apropar; al botó verd amb un guió per allunyar la imatge; o en les fletxes verdes per a mapes adjacents.


METAR-TAF: